Time;durP1;ratioP1;P1;durP2;ratioP2;P2;SDS_P1;SDS_P2;PMS_P1;PMS_P2;Temp;Humidity;BMP_temperature;BMP_pressure;BME280_temperature;BME280_humidity;BME280_pressure;Samples;Min_cycle;Max_cycle;Signal;HPM_P1;HPM_P2
2022/03/20 00:00:11;;;;;;;9.10;4.03;;;;;;;;;;5043188;28;20170;-67
2022/03/20 00:02:36;;;;;;;10.13;3.90;;;;;;;;;;5027707;28;20193;-67
2022/03/20 00:05:03;;;;;;;6.93;3.50;;;;;;;;;;5038722;28;20714;-67
2022/03/20 00:07:33;;;;;;;9.00;3.60;;;;;;;;;;5039346;28;20234;-67
2022/03/20 00:09:58;;;;;;;9.10;3.70;;;;;;;;;;5036773;28;20653;-66
2022/03/20 00:12:24;;;;;;;5.67;3.87;;;;;;;;;;5038824;28;20236;-66
2022/03/20 00:14:49;;;;;;;4.17;3.10;;;;;;;;;;5037199;28;20196;-67
2022/03/20 00:17:16;;;;;;;7.30;3.47;;;;;;;;;;5040107;28;20244;-67
2022/03/20 00:19:42;;;;;;;8.70;3.47;;;;;;;;;;5036661;28;20244;-67
2022/03/20 00:22:07;;;;;;;9.70;3.70;;;;;;;;;;5033480;28;20182;-67
2022/03/20 00:24:34;;;;;;;8.13;3.43;;;;;;;;;;5024281;28;20610;-67
2022/03/20 00:27:00;;;;;;;9.03;3.60;;;;;;;;;;5022396;28;20209;-67
2022/03/20 00:29:26;;;;;;;8.93;3.70;;;;;;;;;;5019322;28;20191;-66
2022/03/20 00:31:52;;;;;;;8.20;3.20;;;;;;;;;;5021056;28;20340;-66
2022/03/20 00:34:17;;;;;;;9.07;4.03;;;;;;;;;;5022887;28;20283;-67
2022/03/20 00:36:43;;;;;;;6.17;3.53;;;;;;;;;;5025416;28;20182;-67
2022/03/20 00:39:08;;;;;;;7.63;3.73;;;;;;;;;;5020671;28;20197;-67
2022/03/20 00:41:33;;;;;;;9.43;3.60;;;;;;;;;;5030719;28;20177;-67
2022/03/20 00:43:59;;;;;;;6.77;3.30;;;;;;;;;;5027467;28;20663;-68
2022/03/20 00:46:25;;;;;;;10.70;3.50;;;;;;;;;;5026365;28;20668;-67
2022/03/20 00:48:50;;;;;;;10.50;3.53;;;;;;;;;;5020476;28;20251;-67
2022/03/20 00:51:16;;;;;;;6.40;3.50;;;;;;;;;;5024719;28;20673;-66
2022/03/20 00:53:41;;;;;;;8.03;4.07;;;;;;;;;;5022307;28;20190;-67
2022/03/20 00:56:07;;;;;;;8.50;3.53;;;;;;;;;;5035096;28;20531;-66
2022/03/20 00:58:33;;;;;;;8.30;3.73;;;;;;;;;;5026484;28;20217;-67
2022/03/20 01:00:59;;;;;;;6.93;3.43;;;;;;;;;;5025939;28;20170;-67
2022/03/20 01:03:25;;;;;;;8.27;3.80;;;;;;;;;;5015191;28;20623;-67
2022/03/20 01:05:51;;;;;;;10.77;4.27;;;;;;;;;;5027035;28;20205;-65
2022/03/20 01:08:17;;;;;;;5.60;3.30;;;;;;;;;;5022274;28;20194;-67
2022/03/20 01:10:43;;;;;;;11.80;3.37;;;;;;;;;;5026550;28;20237;-67
2022/03/20 01:13:08;;;;;;;7.93;3.83;;;;;;;;;;5027069;28;20181;-67
2022/03/20 01:15:34;;;;;;;9.50;3.50;;;;;;;;;;5015344;28;20204;-67
2022/03/20 01:17:59;;;;;;;9.70;3.70;;;;;;;;;;5022844;28;20208;-67
2022/03/20 01:20:25;;;;;;;10.13;3.93;;;;;;;;;;5020796;28;20185;-67
2022/03/20 01:22:50;;;;;;;10.63;3.93;;;;;;;;;;5025813;28;20189;-67
2022/03/20 01:25:18;;;;;;;8.87;4.50;;;;;;;;;;5025381;28;20178;-67
2022/03/20 01:27:44;;;;;;;8.80;4.33;;;;;;;;;;5024652;28;20186;-66
2022/03/20 01:30:09;;;;;;;8.97;4.23;;;;;;;;;;5008988;28;20731;-67
2022/03/20 01:32:35;;;;;;;7.87;4.43;;;;;;;;;;5019164;28;20594;-66
2022/03/20 01:35:01;;;;;;;16.03;4.83;;;;;;;;;;5027592;28;20189;-66
2022/03/20 01:37:26;;;;;;;11.40;5.33;;;;;;;;;;5027663;28;20571;-67
2022/03/20 01:39:52;;;;;;;9.43;5.17;;;;;;;;;;5017588;28;20190;-66
2022/03/20 01:42:21;;;;;;;11.47;4.83;;;;;;;;;;5026219;28;20194;-66
2022/03/20 01:44:47;;;;;;;12.50;5.10;;;;;;;;;;5021343;28;20201;-66
2022/03/20 01:47:13;;;;;;;11.77;5.67;;;;;;;;;;5030610;28;20196;-67
2022/03/20 01:49:38;;;;;;;11.23;4.80;;;;;;;;;;5019368;28;20178;-67
2022/03/20 01:52:10;;;;;;;11.57;5.57;;;;;;;;;;5017185;28;20190;-67
2022/03/20 01:54:37;;;;;;;13.17;6.03;;;;;;;;;;5023741;28;20181;-67
2022/03/20 01:57:02;;;;;;;10.17;5.60;;;;;;;;;;5030695;28;20206;-67
2022/03/20 01:59:28;;;;;;;13.93;5.33;;;;;;;;;;5021795;28;20565;-67
2022/03/20 02:01:53;;;;;;;14.00;6.83;;;;;;;;;;5014617;28;20209;-67
2022/03/20 02:04:19;;;;;;;15.10;6.20;;;;;;;;;;5013543;28;20186;-67
2022/03/20 02:06:44;;;;;;;13.27;6.37;;;;;;;;;;5025753;28;20327;-66
2022/03/20 02:09:10;;;;;;;11.20;6.13;;;;;;;;;;5025409;28;20181;-67
2022/03/20 02:11:36;;;;;;;19.03;6.77;;;;;;;;;;5025339;28;20230;-67
2022/03/20 02:14:02;;;;;;;12.23;6.07;;;;;;;;;;5019932;28;20178;-67
2022/03/20 02:16:28;;;;;;;12.90;6.80;;;;;;;;;;5025095;28;20423;-67
2022/03/20 02:18:54;;;;;;;18.87;7.23;;;;;;;;;;5025405;28;20204;-67
2022/03/20 02:21:39;;;;;;;17.37;7.83;;;;;;;;;;5023212;28;20175;-68
2022/03/20 02:24:23;;;;;;;12.53;5.93;;;;;;;;;;5021640;28;20313;-67
2022/03/20 02:26:49;;;;;;;14.37;6.57;;;;;;;;;;5019939;28;20801;-67
2022/03/20 02:29:14;;;;;;;13.63;7.00;;;;;;;;;;5015210;28;20439;-67
2022/03/20 02:31:40;;;;;;;12.93;6.73;;;;;;;;;;5028105;28;20217;-66
2022/03/20 02:34:07;;;;;;;15.97;7.00;;;;;;;;;;5030930;28;20193;-66
2022/03/20 02:36:33;;;;;;;14.50;7.50;;;;;;;;;;5021724;28;20181;-67
2022/03/20 02:38:59;;;;;;;15.83;8.23;;;;;;;;;;5019904;28;20229;-68
2022/03/20 02:41:26;;;;;;;20.70;8.00;;;;;;;;;;5018434;28;20203;-67
2022/03/20 02:43:51;;;;;;;17.10;7.70;;;;;;;;;;5021265;28;20854;-67
2022/03/20 02:46:17;;;;;;;15.17;8.07;;;;;;;;;;5021518;28;20234;-67
2022/03/20 02:48:45;;;;;;;15.17;7.70;;;;;;;;;;5017355;28;20341;-67
2022/03/20 02:51:11;;;;;;;19.57;8.50;;;;;;;;;;5032274;28;20207;-67
2022/03/20 02:53:36;;;;;;;15.73;7.40;;;;;;;;;;5020514;28;20345;-66
2022/03/20 02:56:02;;;;;;;16.23;8.20;;;;;;;;;;5020520;28;20269;-67
2022/03/20 02:58:27;;;;;;;18.10;8.33;;;;;;;;;;5019378;28;20193;-67
2022/03/20 03:00:55;;;;;;;16.73;7.83;;;;;;;;;;5015695;28;20270;-67
2022/03/20 03:03:20;;;;;;;19.27;8.43;;;;;;;;;;5019426;28;20252;-67
2022/03/20 03:05:46;;;;;;;17.63;8.43;;;;;;;;;;5017195;28;20182;-67
2022/03/20 03:10:57;;;;;;;18.60;7.97;;;;;;;;;;5035830;28;20232;-67
2022/03/20 03:13:29;;;;;;;15.63;7.97;;;;;;;;;;5028935;28;20179;-67
2022/03/20 03:16:00;;;;;;;16.70;8.80;;;;;;;;;;5014172;28;20277;-67
2022/03/20 03:18:26;;;;;;;17.87;8.33;;;;;;;;;;5027484;28;20189;-66
2022/03/20 03:20:51;;;;;;;14.43;7.37;;;;;;;;;;5019670;28;20178;-66
2022/03/20 03:23:18;;;;;;;20.80;9.10;;;;;;;;;;5025406;28;20209;-66
2022/03/20 03:25:44;;;;;;;21.57;8.70;;;;;;;;;;5027419;28;20193;-67
2022/03/20 03:28:10;;;;;;;19.33;8.87;;;;;;;;;;5028610;28;20182;-67
2022/03/20 03:30:37;;;;;;;21.37;8.60;;;;;;;;;;5032598;28;20214;-66
2022/03/20 03:33:02;;;;;;;21.53;9.23;;;;;;;;;;5026997;28;20277;-67
2022/03/20 03:35:43;;;;;;;22.47;9.67;;;;;;;;;;5022479;28;20609;-66
2022/03/20 03:38:16;;;;;;;15.13;7.60;;;;;;;;;;5027345;28;20182;-67
2022/03/20 03:40:44;;;;;;;19.90;9.20;;;;;;;;;;5021438;28;20257;-67
2022/03/20 03:43:10;;;;;;;18.13;9.27;;;;;;;;;;5022924;28;20186;-66
2022/03/20 03:45:35;;;;;;;21.50;9.23;;;;;;;;;;5027677;28;20197;-66
2022/03/20 03:48:02;;;;;;;21.70;9.57;;;;;;;;;;5029140;28;20175;-66
2022/03/20 03:50:28;;;;;;;20.67;9.20;;;;;;;;;;5029997;28;20214;-66
2022/03/20 03:52:53;;;;;;;21.73;9.33;;;;;;;;;;5028559;28;20217;-65
2022/03/20 03:55:19;;;;;;;24.03;10.03;;;;;;;;;;5026399;28;20218;-66
2022/03/20 03:57:49;;;;;;;18.87;9.43;;;;;;;;;;5025120;28;20188;-66
2022/03/20 04:00:19;;;;;;;19.97;10.00;;;;;;;;;;5021192;28;20664;-67
2022/03/20 04:02:46;;;;;;;18.33;9.07;;;;;;;;;;5031503;28;20182;-66
2022/03/20 04:05:11;;;;;;;18.47;8.60;;;;;;;;;;5030637;28;20186;-67
2022/03/20 04:07:38;;;;;;;21.90;10.70;;;;;;;;;;5035221;28;20184;-67
2022/03/20 04:10:05;;;;;;;19.63;9.40;;;;;;;;;;5036596;28;20189;-67
2022/03/20 04:12:31;;;;;;;23.03;9.00;;;;;;;;;;5027298;28;20214;-67
2022/03/20 04:15:02;;;;;;;22.53;10.20;;;;;;;;;;5031067;28;20173;-66
2022/03/20 04:17:28;;;;;;;20.40;10.23;;;;;;;;;;5045359;28;20240;-67
2022/03/20 04:19:53;;;;;;;19.10;9.47;;;;;;;;;;5034425;28;20193;-66
2022/03/20 04:22:18;;;;;;;23.93;10.53;;;;;;;;;;5029912;28;20181;-66
2022/03/20 04:24:44;;;;;;;19.13;8.53;;;;;;;;;;5025099;28;20197;-66
2022/03/20 04:27:11;;;;;;;20.47;10.07;;;;;;;;;;5035285;28;20506;-67
2022/03/20 04:29:37;;;;;;;17.17;9.23;;;;;;;;;;5035709;28;20232;-67
2022/03/20 04:32:02;;;;;;;23.13;11.30;;;;;;;;;;5038795;28;20687;-67
2022/03/20 04:34:27;;;;;;;21.57;9.70;;;;;;;;;;5024120;28;20186;-68
2022/03/20 04:36:56;;;;;;;18.63;9.17;;;;;;;;;;5043397;28;20299;-66
2022/03/20 04:39:22;;;;;;;21.47;10.30;;;;;;;;;;5039533;28;20186;-67
2022/03/20 04:41:47;;;;;;;18.30;10.57;;;;;;;;;;5040903;28;20290;-67
2022/03/20 04:44:13;;;;;;;23.17;10.27;;;;;;;;;;5033838;28;20195;-67
2022/03/20 04:46:40;;;;;;;18.37;9.70;;;;;;;;;;5038482;28;20450;-67
2022/03/20 05:00:02;;;;;;;19.03;8.03;;;;;;;;;;5024447;28;20240;-67
2022/03/20 05:02:28;;;;;;;23.57;11.07;;;;;;;;;;5026883;28;20190;-67
2022/03/20 05:04:54;;;;;;;22.83;11.00;;;;;;;;;;5029301;28;20219;-66
2022/03/20 05:07:19;;;;;;;19.73;10.57;;;;;;;;;;5039936;28;20692;-66
2022/03/20 05:15:14;;;;;;;22.80;9.23;;;;;;;;;;5036324;28;20558;-67
2022/03/20 05:17:40;;;;;;;21.87;10.70;;;;;;;;;;5043216;28;20238;-67
2022/03/20 05:20:05;;;;;;;25.20;10.97;;;;;;;;;;5033677;28;20197;-66
2022/03/20 05:22:34;;;;;;;24.70;11.33;;;;;;;;;;5037241;28;20182;-66
2022/03/20 05:25:01;;;;;;;20.40;10.87;;;;;;;;;;5035895;28;20178;-66
2022/03/20 05:27:26;;;;;;;21.73;10.50;;;;;;;;;;5037140;28;20269;-66
2022/03/20 05:29:52;;;;;;;20.10;11.17;;;;;;;;;;5023455;28;20676;-66
2022/03/20 05:32:18;;;;;;;23.50;11.60;;;;;;;;;;5034028;28;20347;-67
2022/03/20 05:34:44;;;;;;;23.07;11.77;;;;;;;;;;5034313;28;20622;-66
2022/03/20 05:37:09;;;;;;;22.30;11.40;;;;;;;;;;5027687;28;20285;-67
2022/03/20 05:39:35;;;;;;;20.33;10.60;;;;;;;;;;5043285;28;20185;-67
2022/03/20 05:42:00;;;;;;;19.90;10.90;;;;;;;;;;5036277;28;20240;-66
2022/03/20 05:44:26;;;;;;;23.60;10.83;;;;;;;;;;5043262;28;20206;-66
2022/03/20 05:46:54;;;;;;;21.27;10.20;;;;;;;;;;5039563;28;20196;-66
2022/03/20 05:49:21;;;;;;;26.07;11.37;;;;;;;;;;5041943;28;20199;-67
2022/03/20 05:51:47;;;;;;;23.47;11.83;;;;;;;;;;5029843;28;20224;-66
2022/03/20 05:54:15;;;;;;;23.80;10.53;;;;;;;;;;5035281;28;20194;-66
2022/03/20 05:59:25;;;;;;;20.83;11.03;;;;;;;;;;5028715;28;20214;-66
2022/03/20 06:01:51;;;;;;;20.30;10.23;;;;;;;;;;5023915;28;20182;-66
2022/03/20 06:04:20;;;;;;;22.43;11.63;;;;;;;;;;5022238;28;20178;-67
2022/03/20 06:06:45;;;;;;;25.07;10.87;;;;;;;;;;5041612;28;20550;-67
2022/03/20 06:09:11;;;;;;;22.20;11.23;;;;;;;;;;5038477;28;20247;-67
2022/03/20 06:11:37;;;;;;;32.27;11.27;;;;;;;;;;5034215;28;20713;-67
2022/03/20 06:14:03;;;;;;;21.77;11.20;;;;;;;;;;5039347;28;20190;-67
2022/03/20 06:16:29;;;;;;;22.77;11.57;;;;;;;;;;5031836;28;20264;-67
2022/03/20 06:18:55;;;;;;;25.43;11.27;;;;;;;;;;5036890;28;20269;-67
2022/03/20 06:21:21;;;;;;;23.87;11.43;;;;;;;;;;5042928;28;20180;-67
2022/03/20 06:23:47;;;;;;;22.03;11.37;;;;;;;;;;5046323;28;20252;-67
2022/03/20 06:26:12;;;;;;;24.47;12.00;;;;;;;;;;5029284;28;20204;-66
2022/03/20 06:28:40;;;;;;;25.07;12.37;;;;;;;;;;5030564;28;20193;-66
2022/03/20 06:31:09;;;;;;;21.03;11.77;;;;;;;;;;5026135;28;20243;-67
2022/03/20 06:33:35;;;;;;;31.43;11.60;;;;;;;;;;5028299;28;20186;-66
2022/03/20 06:36:01;;;;;;;22.37;11.40;;;;;;;;;;5024641;28;20216;-67
2022/03/20 06:38:26;;;;;;;25.00;12.40;;;;;;;;;;5031023;28;20193;-67
2022/03/20 06:40:51;;;;;;;28.77;12.87;;;;;;;;;;5034851;28;20209;-67
2022/03/20 06:43:17;;;;;;;21.77;11.80;;;;;;;;;;5044067;28;20200;-66
2022/03/20 06:45:42;;;;;;;25.93;11.43;;;;;;;;;;5040749;28;20264;-66
2022/03/20 06:48:08;;;;;;;23.13;11.90;;;;;;;;;;5045475;28;20268;-67
2022/03/20 06:50:34;;;;;;;21.67;11.43;;;;;;;;;;5041391;28;20207;-66
2022/03/20 06:53:03;;;;;;;21.77;12.67;;;;;;;;;;5043527;28;20498;-67
2022/03/20 06:55:30;;;;;;;20.77;12.17;;;;;;;;;;5045532;28;20597;-66
2022/03/20 06:57:58;;;;;;;21.63;11.30;;;;;;;;;;5045015;28;20676;-66
2022/03/20 07:00:23;;;;;;;20.40;11.87;;;;;;;;;;5044636;28;20216;-67
2022/03/20 07:02:48;;;;;;;29.13;12.90;;;;;;;;;;5042532;28;20810;-67
2022/03/20 07:05:14;;;;;;;23.07;11.87;;;;;;;;;;5046405;28;20767;-67
2022/03/20 07:07:40;;;;;;;23.87;11.30;;;;;;;;;;5035952;28;20185;-67
2022/03/20 07:10:07;;;;;;;20.97;11.53;;;;;;;;;;5027925;28;20190;-66
2022/03/20 07:12:33;;;;;;;25.50;12.03;;;;;;;;;;5030698;28;20259;-66
2022/03/20 07:14:59;;;;;;;26.70;12.37;;;;;;;;;;5034156;28;20232;-67
2022/03/20 07:17:25;;;;;;;23.53;12.13;;;;;;;;;;5029622;28;20265;-67
2022/03/20 07:19:50;;;;;;;21.83;12.00;;;;;;;;;;5029856;28;20206;-67
2022/03/20 07:22:16;;;;;;;21.50;10.83;;;;;;;;;;5031871;28;20205;-66
2022/03/20 07:24:43;;;;;;;22.03;12.60;;;;;;;;;;5039205;28;20589;-66
2022/03/20 07:29:55;;;;;;;25.73;13.17;;;;;;;;;;5036988;28;20801;-68
2022/03/20 07:32:20;;;;;;;26.30;13.30;;;;;;;;;;5042615;28;20201;-67
2022/03/20 07:34:46;;;;;;;26.63;13.23;;;;;;;;;;5047003;28;20193;-66
2022/03/20 07:37:16;;;;;;;23.83;11.37;;;;;;;;;;5029243;28;20328;-68
2022/03/20 07:39:42;;;;;;;22.07;12.23;;;;;;;;;;5033432;28;20185;-67
2022/03/20 07:42:08;;;;;;;27.73;13.83;;;;;;;;;;5034897;28;20664;-68
2022/03/20 07:44:36;;;;;;;29.13;12.90;;;;;;;;;;5045810;28;20185;-66
2022/03/20 07:47:07;;;;;;;24.80;13.20;;;;;;;;;;5037297;28;20269;-67
2022/03/20 07:49:34;;;;;;;27.23;13.47;;;;;;;;;;5036905;28;20304;-67
2022/03/20 07:51:59;;;;;;;26.37;13.40;;;;;;;;;;5040396;28;20197;-67
2022/03/20 07:54:26;;;;;;;26.83;13.67;;;;;;;;;;5037061;28;20261;-66
2022/03/20 07:56:51;;;;;;;23.40;13.10;;;;;;;;;;5039111;28;20285;-67
2022/03/20 07:59:16;;;;;;;26.63;13.27;;;;;;;;;;5037611;28;20288;-67
2022/03/20 08:01:43;;;;;;;23.93;13.13;;;;;;;;;;5038901;28;20334;-67
2022/03/20 08:04:08;;;;;;;27.93;12.40;;;;;;;;;;5034143;28;20181;-67
2022/03/20 08:06:34;;;;;;;27.80;13.80;;;;;;;;;;5041637;28;20209;-67
2022/03/20 08:08:59;;;;;;;27.73;13.47;;;;;;;;;;5040926;28;20193;-66
2022/03/20 08:11:31;;;;;;;22.63;12.90;;;;;;;;;;5042986;28;20225;-68
2022/03/20 08:13:57;;;;;;;24.83;13.47;;;;;;;;;;5041137;28;20189;-68
2022/03/20 08:16:25;;;;;;;26.30;13.50;;;;;;;;;;5037398;28;20240;-67
2022/03/20 08:18:52;;;;;;;27.60;13.57;;;;;;;;;;5027818;28;20181;-67
2022/03/20 08:21:17;;;;;;;25.90;12.47;;;;;;;;;;5031538;28;20198;-67
2022/03/20 08:23:43;;;;;;;28.57;13.17;;;;;;;;;;5028274;28;20265;-67
2022/03/20 08:26:09;;;;;;;21.93;11.80;;;;;;;;;;5037627;28;20186;-67
2022/03/20 08:28:45;;;;;;;26.83;13.93;;;;;;;;;;5035908;28;20196;-67
2022/03/20 08:31:11;;;;;;;26.93;13.47;;;;;;;;;;5037850;28;20213;-66
2022/03/20 08:33:36;;;;;;;27.63;13.67;;;;;;;;;;5041216;28;20216;-67
2022/03/20 08:36:04;;;;;;;26.07;13.37;;;;;;;;;;5041364;28;20185;-67
2022/03/20 08:38:29;;;;;;;27.30;14.93;;;;;;;;;;5037491;28;20533;-67
2022/03/20 08:40:55;;;;;;;28.90;14.13;;;;;;;;;;5034806;28;20310;-67
2022/03/20 08:43:21;;;;;;;27.73;14.17;;;;;;;;;;5021668;28;20277;-67
2022/03/20 08:45:47;;;;;;;25.07;13.10;;;;;;;;;;5022348;28;20190;-66
2022/03/20 08:48:12;;;;;;;28.57;14.37;;;;;;;;;;5039646;28;20344;-67
2022/03/20 08:50:37;;;;;;;26.03;13.33;;;;;;;;;;5041124;28;20205;-66
2022/03/20 08:53:04;;;;;;;24.17;14.17;;;;;;;;;;5038503;28;20192;-66
2022/03/20 08:55:33;;;;;;;27.03;14.23;;;;;;;;;;5037000;28;20649;-66
2022/03/20 08:57:58;;;;;;;26.20;13.97;;;;;;;;;;5035479;28;20197;-68
2022/03/20 09:00:25;;;;;;;31.13;14.77;;;;;;;;;;5038437;28;20605;-67
2022/03/20 09:02:51;;;;;;;32.57;14.90;;;;;;;;;;5035190;28;20723;-68
2022/03/20 09:05:17;;;;;;;23.77;14.10;;;;;;;;;;5025705;28;20221;-67
2022/03/20 09:07:45;;;;;;;29.07;13.83;;;;;;;;;;5031965;28;20220;-67
2022/03/20 09:10:11;;;;;;;26.17;14.27;;;;;;;;;;5037387;28;20616;-67
2022/03/20 09:12:38;;;;;;;29.57;15.47;;;;;;;;;;5036931;28;20299;-66
2022/03/20 09:15:05;;;;;;;25.23;14.63;;;;;;;;;;5036461;28;20478;-67
2022/03/20 09:20:14;;;;;;;29.30;14.93;;;;;;;;;;5042530;28;20184;-66
2022/03/20 09:22:40;;;;;;;28.00;14.47;;;;;;;;;;5027505;28;20185;-67
2022/03/20 09:25:07;;;;;;;28.03;15.73;;;;;;;;;;5042320;28;20193;-67
2022/03/20 09:27:33;;;;;;;29.80;15.33;;;;;;;;;;5039378;28;20181;-67
2022/03/20 09:29:58;;;;;;;33.97;16.90;;;;;;;;;;5039032;28;20548;-67
2022/03/20 09:32:24;;;;;;;27.63;15.57;;;;;;;;;;5041455;28;20220;-66
2022/03/20 09:34:50;;;;;;;30.90;15.30;;;;;;;;;;5041247;28;20216;-67
2022/03/20 09:37:15;;;;;;;27.87;15.30;;;;;;;;;;5033928;28;20212;-67
2022/03/20 09:39:40;;;;;;;28.43;16.07;;;;;;;;;;5023811;28;20189;-66
2022/03/20 09:42:06;;;;;;;29.97;15.53;;;;;;;;;;5024582;28;20179;-67
2022/03/20 09:44:34;;;;;;;26.50;14.80;;;;;;;;;;5023377;28;20192;-66
2022/03/20 09:47:00;;;;;;;29.92;15.52;;;;;;;;;;5027456;28;20211;-66
2022/03/20 09:49:27;;;;;;;31.25;15.85;;;;;;;;;;5028048;28;20185;-67
2022/03/20 09:51:53;;;;;;;28.75;15.57;;;;;;;;;;5023745;28;20209;-66
2022/03/20 09:54:19;;;;;;;25.80;15.43;;;;;;;;;;5021314;28;20209;-66
2022/03/20 09:56:44;;;;;;;29.05;15.48;;;;;;;;;;5023734;28;20236;-66
2022/03/20 09:59:10;;;;;;;27.70;15.18;;;;;;;;;;5021110;28;20383;-66
2022/03/20 10:01:36;;;;;;;27.95;15.32;;;;;;;;;;5027602;28;20205;-67
2022/03/20 10:04:11;;;;;;;32.72;16.00;;;;;;;;;;5024962;28;20557;-67
2022/03/20 10:06:37;;;;;;;29.73;16.02;;;;;;;;;;5040076;28;20188;-66
2022/03/20 10:09:05;;;;;;;27.55;16.48;;;;;;;;;;5037613;28;20554;-66
2022/03/20 10:11:33;;;;;;;29.48;16.75;;;;;;;;;;5040680;28;20700;-67
2022/03/20 10:14:14;;;;;;;30.38;15.90;;;;;;;;;;5027105;28;20201;-67
2022/03/20 10:16:48;;;;;;;29.25;16.67;;;;;;;;;;5015197;28;20191;-67
2022/03/20 10:19:40;;;;;;;31.08;16.80;;;;;;;;;;5040318;28;20194;-66
2022/03/20 10:22:10;;;;;;;29.13;16.13;;;;;;;;;;5016684;28;20993;-67
2022/03/20 10:24:38;;;;;;;29.23;16.02;;;;;;;;;;5038454;28;20182;-67
2022/03/20 10:27:05;;;;;;;30.08;16.88;;;;;;;;;;5036047;28;20194;-67
2022/03/20 10:29:35;;;;;;;31.42;17.00;;;;;;;;;;5038060;28;20182;-66
2022/03/20 10:32:05;;;;;;;29.38;17.17;;;;;;;;;;5020783;28;20213;-66
2022/03/20 10:34:46;;;;;;;32.13;17.02;;;;;;;;;;5021682;28;20189;-66
2022/03/20 10:37:12;;;;;;;30.38;16.77;;;;;;;;;;5030238;28;20708;-65
2022/03/20 10:39:41;;;;;;;30.25;16.73;;;;;;;;;;5025891;28;20190;-65
2022/03/20 10:42:10;;;;;;;32.53;17.50;;;;;;;;;;5029442;28;20216;-66
2022/03/20 10:44:38;;;;;;;30.98;16.73;;;;;;;;;;5029498;28;20590;-67
2022/03/20 10:47:13;;;;;;;30.23;17.20;;;;;;;;;;5023711;28;20206;-67
2022/03/20 10:49:46;;;;;;;31.95;17.73;;;;;;;;;;5029655;28;20186;-67
2022/03/20 10:52:18;;;;;;;27.08;16.75;;;;;;;;;;5029338;28;20199;-67
2022/03/20 10:54:51;;;;;;;30.33;17.17;;;;;;;;;;5047633;28;20185;-67
2022/03/20 10:57:17;;;;;;;28.48;17.10;;;;;;;;;;5024727;28;20210;-67
2022/03/20 10:59:55;;;;;;;31.55;17.52;;;;;;;;;;5031059;28;20630;-66
2022/03/20 11:02:23;;;;;;;28.00;16.45;;;;;;;;;;5026022;28;20249;-67
2022/03/20 11:04:49;;;;;;;28.08;17.08;;;;;;;;;;5022647;28;20307;-67
2022/03/20 11:07:18;;;;;;;28.77;17.00;;;;;;;;;;5040552;28;20293;-66
2022/03/20 11:09:48;;;;;;;31.13;17.55;;;;;;;;;;5024210;28;20214;-67
2022/03/20 11:12:34;;;;;;;32.45;17.17;;;;;;;;;;5025244;28;20650;-67
2022/03/20 11:15:04;;;;;;;28.75;17.00;;;;;;;;;;5040621;28;20664;-67
2022/03/20 11:17:43;;;;;;;33.60;18.42;;;;;;;;;;5034464;28;20248;-67
2022/03/20 11:20:16;;;;;;;28.58;16.92;;;;;;;;;;5040926;28;20228;-67
2022/03/20 11:22:50;;;;;;;28.52;17.27;;;;;;;;;;5036132;28;20192;-67
2022/03/20 11:25:22;;;;;;;32.83;18.08;;;;;;;;;;5036557;28;20240;-67
2022/03/20 11:27:56;;;;;;;32.50;17.33;;;;;;;;;;5031940;28;20251;-67
2022/03/20 11:30:27;;;;;;;29.73;17.17;;;;;;;;;;5037173;28;20699;-66
2022/03/20 11:32:54;;;;;;;31.63;18.02;;;;;;;;;;5027126;28;20209;-66
2022/03/20 11:35:25;;;;;;;26.17;17.20;;;;;;;;;;5024654;28;20293;-67
2022/03/20 11:37:53;;;;;;;32.40;18.05;;;;;;;;;;5030069;28;20185;-68
2022/03/20 11:40:21;;;;;;;28.30;16.52;;;;;;;;;;5039257;28;20218;-66
2022/03/20 11:42:48;;;;;;;31.10;18.45;;;;;;;;;;5032649;28;20189;-67
2022/03/20 11:45:23;;;;;;;29.23;17.58;;;;;;;;;;5036643;28;20628;-67
2022/03/20 11:47:50;;;;;;;30.00;16.88;;;;;;;;;;5031918;28;20186;-67
2022/03/20 11:50:22;;;;;;;30.88;17.88;;;;;;;;;;5040746;28;20201;-67
2022/03/20 11:52:58;;;;;;;33.97;18.17;;;;;;;;;;5027270;28;20186;-66
2022/03/20 11:55:37;;;;;;;29.30;17.95;;;;;;;;;;5040330;28;20196;-68
2022/03/20 11:58:35;;;;;;;30.33;18.10;;;;;;;;;;5027831;28;20255;-67
2022/03/20 12:01:03;;;;;;;29.30;17.38;;;;;;;;;;5023256;28;20632;-67
2022/03/20 12:03:44;;;;;;;30.67;17.70;;;;;;;;;;5029230;28;20213;-68
2022/03/20 12:06:43;;;;;;;34.38;18.77;;;;;;;;;;5042595;28;20193;-68
2022/03/20 12:09:34;;;;;;;31.83;19.08;;;;;;;;;;5040172;28;20227;-67
2022/03/20 12:12:21;;;;;;;30.65;17.55;;;;;;;;;;5039649;28;20230;-68
2022/03/20 12:14:51;;;;;;;31.67;18.17;;;;;;;;;;5042042;28;20696;-68
2022/03/20 12:17:17;;;;;;;31.67;19.08;;;;;;;;;;5041314;28;20622;-68
2022/03/20 12:19:53;;;;;;;31.10;17.80;;;;;;;;;;5044375;28;20188;-67
2022/03/20 12:22:18;;;;;;;31.92;18.13;;;;;;;;;;5041167;28;20198;-67
2022/03/20 12:24:54;;;;;;;33.05;17.50;;;;;;;;;;5040437;28;20261;-68
2022/03/20 12:27:22;;;;;;;37.83;19.10;;;;;;;;;;5039488;28;20197;-67
2022/03/20 12:29:54;;;;;;;34.08;18.80;;;;;;;;;;5042359;28;20173;-68
2022/03/20 12:32:21;;;;;;;30.30;17.80;;;;;;;;;;5041311;28;20205;-68
2022/03/20 12:35:04;;;;;;;34.22;17.95;;;;;;;;;;5043772;28;20185;-67
2022/03/20 12:37:33;;;;;;;30.73;17.98;;;;;;;;;;5037150;28;20181;-68
2022/03/20 12:40:16;;;;;;;36.38;19.83;;;;;;;;;;5044711;28;20185;-68
2022/03/20 12:42:55;;;;;;;33.10;17.45;;;;;;;;;;5035691;28;20189;-68
2022/03/20 12:45:21;;;;;;;32.50;18.92;;;;;;;;;;5039803;28;20181;-67
2022/03/20 12:47:58;;;;;;;33.90;18.92;;;;;;;;;;5034763;28;20197;-68
2022/03/20 12:50:32;;;;;;;31.75;18.63;;;;;;;;;;5032733;28;20174;-67
2022/03/20 12:53:21;;;;;;;31.08;18.35;;;;;;;;;;5037614;28;20183;-67
2022/03/20 12:55:55;;;;;;;31.60;18.60;;;;;;;;;;5039601;28;20204;-67
2022/03/20 12:58:22;;;;;;;31.38;18.35;;;;;;;;;;5033298;28;20216;-67
2022/03/20 13:00:47;;;;;;;27.55;18.10;;;;;;;;;;5037673;28;20179;-67
2022/03/20 13:03:17;;;;;;;33.15;18.33;;;;;;;;;;5031760;28;20203;-67
2022/03/20 13:05:57;;;;;;;32.53;18.35;;;;;;;;;;5026412;28;20182;-67
2022/03/20 13:08:23;;;;;;;28.27;18.17;;;;;;;;;;5022125;28;20205;-68
2022/03/20 13:10:51;;;;;;;31.92;18.90;;;;;;;;;;5032864;28;20234;-68
2022/03/20 13:13:23;;;;;;;29.48;18.73;;;;;;;;;;5022691;28;20190;-67
2022/03/20 13:15:49;;;;;;;29.17;18.92;;;;;;;;;;5022991;28;20178;-68
2022/03/20 13:18:15;;;;;;;31.25;18.80;;;;;;;;;;5035146;28;20883;-66
2022/03/20 13:20:45;;;;;;;33.28;19.42;;;;;;;;;;5039234;28;20173;-68
2022/03/20 13:23:13;;;;;;;31.25;18.60;;;;;;;;;;5042485;28;20194;-67
2022/03/20 13:26:00;;;;;;;29.08;18.80;;;;;;;;;;5022513;28;21677;-68
2022/03/20 13:28:31;;;;;;;31.75;19.55;;;;;;;;;;5035305;28;20196;-67
2022/03/20 13:31:02;;;;;;;28.95;18.13;;;;;;;;;;5029037;28;20244;-67
2022/03/20 13:33:31;;;;;;;31.05;18.30;;;;;;;;;;5036832;28;20196;-67
2022/03/20 13:35:58;;;;;;;30.83;18.50;;;;;;;;;;5042578;28;20271;-67
2022/03/20 13:38:31;;;;;;;29.88;18.75;;;;;;;;;;5037732;28;20217;-67
2022/03/20 13:41:08;;;;;;;34.22;19.50;;;;;;;;;;5042224;28;20587;-67
2022/03/20 13:43:34;;;;;;;33.85;19.00;;;;;;;;;;5043194;28;20555;-67
2022/03/20 13:46:34;;;;;;;31.50;18.52;;;;;;;;;;5038333;28;20257;-67
2022/03/20 13:49:05;;;;;;;33.33;19.60;;;;;;;;;;5036120;28;20194;-67
2022/03/20 13:51:32;;;;;;;33.10;20.65;;;;;;;;;;5039171;28;20215;-67
2022/03/20 13:54:16;;;;;;;33.90;18.75;;;;;;;;;;5041250;28;20632;-67
2022/03/20 13:56:44;;;;;;;29.80;19.17;;;;;;;;;;5035336;28;20181;-66
2022/03/20 13:59:12;;;;;;;30.80;19.02;;;;;;;;;;5039209;28;20181;-67
2022/03/20 14:01:45;;;;;;;34.10;19.60;;;;;;;;;;5037847;28;20282;-67
2022/03/20 14:04:16;;;;;;;31.40;19.50;;;;;;;;;;5035685;28;20177;-67
2022/03/20 14:06:46;;;;;;;33.08;19.70;;;;;;;;;;5043469;28;20173;-67
2022/03/20 14:09:13;;;;;;;35.22;20.55;;;;;;;;;;5035732;28;20201;-68
2022/03/20 14:11:39;;;;;;;39.25;20.77;;;;;;;;;;5028647;28;20698;-67
2022/03/20 14:14:06;;;;;;;34.10;20.17;;;;;;;;;;5019673;28;20244;-67
2022/03/20 14:16:32;;;;;;;34.63;19.83;;;;;;;;;;5032531;28;20186;-68
2022/03/20 14:19:02;;;;;;;33.35;20.15;;;;;;;;;;5036049;28;20617;-66
2022/03/20 14:21:30;;;;;;;36.45;20.85;;;;;;;;;;5035266;28;20219;-67
2022/03/20 14:24:02;;;;;;;34.13;20.08;;;;;;;;;;5033740;28;20185;-68
2022/03/20 14:26:29;;;;;;;34.97;20.98;;;;;;;;;;5025677;28;20190;-68
2022/03/20 14:29:12;;;;;;;36.65;20.75;;;;;;;;;;5028427;28;20177;-67
2022/03/20 14:40:13;;;;;;;38.97;23.27;;;;;;;;;;5024380;28;20236;-68
2022/03/20 14:42:40;;;;;;;38.13;23.25;;;;;;;;;;5043551;28;20204;-68
2022/03/20 14:45:07;;;;;;;41.38;24.05;;;;;;;;;;5032008;28;20296;-68
2022/03/20 14:47:33;;;;;;;44.60;24.23;;;;;;;;;;5031921;28;20178;-66
2022/03/20 14:50:00;;;;;;;40.53;23.08;;;;;;;;;;5025402;28;20238;-67
2022/03/20 14:52:26;;;;;;;39.85;24.08;;;;;;;;;;5035536;28;20244;-67
2022/03/20 14:54:54;;;;;;;44.10;23.73;;;;;;;;;;5042384;28;20201;-67
2022/03/20 14:57:20;;;;;;;41.58;24.23;;;;;;;;;;5046167;28;20552;-67
2022/03/20 14:59:46;;;;;;;41.53;24.83;;;;;;;;;;5035023;28;20189;-67
2022/03/20 15:02:12;;;;;;;44.25;26.02;;;;;;;;;;5044336;28;20596;-67